createdAt,value
2022-10-02T00:00:02.260Z,10.61
2022-10-02T00:01:02.362Z,10.62
2022-10-02T00:02:02.489Z,10.62
2022-10-02T00:03:02.606Z,10.67
2022-10-02T00:04:02.794Z,10.67
2022-10-02T00:05:02.838Z,10.65
2022-10-02T00:06:03.001Z,10.61
2022-10-02T00:07:03.097Z,10.59
2022-10-02T00:08:03.193Z,10.61
2022-10-02T00:09:03.313Z,10.61
2022-10-02T00:10:03.432Z,10.61
2022-10-02T00:11:03.554Z,10.62
2022-10-02T00:12:03.677Z,10.64
2022-10-02T00:13:03.795Z,10.65
2022-10-02T00:14:03.921Z,10.64
2022-10-02T00:15:04.038Z,10.67
2022-10-02T00:16:04.183Z,10.70
2022-10-02T00:17:04.281Z,10.69
2022-10-02T00:18:04.395Z,10.69
2022-10-02T00:19:04.512Z,10.67
2022-10-02T00:20:04.636Z,10.65
2022-10-02T00:21:04.760Z,10.70
2022-10-02T00:22:04.879Z,10.69
2022-10-02T00:23:05.029Z,10.73
2022-10-02T00:24:05.133Z,10.76
2022-10-02T00:25:05.256Z,10.79
2022-10-02T00:26:05.378Z,10.79
2022-10-02T00:27:05.501Z,10.79
2022-10-02T00:28:05.738Z,10.79
2022-10-02T00:29:05.735Z,10.79
2022-10-02T00:30:05.858Z,10.83
2022-10-02T00:31:05.974Z,10.91
2022-10-02T00:32:06.214Z,10.90
2022-10-02T00:33:06.205Z,10.90
2022-10-02T00:34:06.325Z,10.88
2022-10-02T00:35:06.443Z,10.91
2022-10-02T00:36:06.564Z,10.94
2022-10-02T00:37:06.671Z,10.98
2022-10-02T00:38:06.816Z,10.97
2022-10-02T00:39:06.908Z,11.01
2022-10-02T00:40:07.021Z,11.02
2022-10-02T00:41:07.135Z,11.01
2022-10-02T00:42:07.251Z,11.02
2022-10-02T00:43:07.362Z,11.08
2022-10-02T00:44:07.473Z,11.08
2022-10-02T00:45:07.586Z,11.06
2022-10-02T00:46:07.774Z,11.05
2022-10-02T00:47:07.811Z,11.05
2022-10-02T00:48:07.923Z,11.06
2022-10-02T00:49:08.040Z,11.05
2022-10-02T00:50:08.149Z,11.08
2022-10-02T00:51:08.264Z,11.06
2022-10-02T00:52:08.378Z,11.05
2022-10-02T00:53:08.509Z,11.02
2022-10-02T00:54:08.591Z,11.02
2022-10-02T00:55:08.702Z,11.02
2022-10-02T00:56:08.814Z,11.02
2022-10-02T00:57:08.922Z,11.05
2022-10-02T00:58:09.036Z,11.06
2022-10-02T00:59:09.147Z,11.08
2022-10-02T01:00:09.261Z,11.09
2022-10-02T01:01:09.479Z,11.08
2022-10-02T01:02:09.542Z,11.08
2022-10-02T01:03:09.609Z,11.09
2022-10-02T01:04:09.725Z,11.12
2022-10-02T01:05:09.838Z,11.13
2022-10-02T01:06:09.952Z,11.15
2022-10-02T01:07:10.071Z,11.16
2022-10-02T01:08:10.185Z,11.16
2022-10-02T01:09:10.322Z,11.15
2022-10-02T01:10:10.406Z,11.21
2022-10-02T01:11:10.521Z,11.24
2022-10-02T01:12:10.630Z,11.27
2022-10-02T01:13:10.741Z,11.25
2022-10-02T01:14:10.853Z,11.21
2022-10-02T01:15:10.961Z,11.19
2022-10-02T01:16:11.124Z,11.21
2022-10-02T01:17:11.175Z,11.24
2022-10-02T01:18:11.291Z,11.27
2022-10-02T01:19:11.408Z,11.34
2022-10-02T01:20:11.520Z,11.36
2022-10-02T01:21:11.653Z,11.39
2022-10-02T01:22:11.742Z,11.36
2022-10-02T01:23:11.856Z,11.36
2022-10-02T01:24:11.967Z,11.36
2022-10-02T01:25:12.096Z,11.35
2022-10-02T01:26:12.186Z,11.39
2022-10-02T01:27:12.306Z,11.38
2022-10-02T01:28:12.515Z,11.38
2022-10-02T01:29:12.531Z,11.39
2022-10-02T01:30:12.645Z,11.38
2022-10-02T01:31:12.876Z,11.35
2022-10-02T01:32:12.876Z,11.36
2022-10-02T01:33:12.994Z,11.39
2022-10-02T01:34:13.105Z,11.44
2022-10-02T01:35:13.217Z,11.44
2022-10-02T01:36:13.334Z,11.41
2022-10-02T01:37:13.447Z,11.44
2022-10-02T01:38:13.562Z,11.47
2022-10-02T01:39:13.673Z,11.47
2022-10-02T01:40:13.781Z,11.50
2022-10-02T01:41:14.045Z,11.52
2022-10-02T01:42:14.007Z,11.47
2022-10-02T01:43:14.116Z,11.47
2022-10-02T01:44:14.230Z,11.43
2022-10-02T01:45:14.343Z,11.43
2022-10-02T01:46:14.513Z,11.46
2022-10-02T01:47:14.569Z,11.44
2022-10-02T01:48:14.685Z,11.47
2022-10-02T01:49:14.795Z,11.46
2022-10-02T01:50:14.906Z,11.49
2022-10-02T01:51:15.020Z,11.49
2022-10-02T01:52:15.127Z,11.49
2022-10-02T01:53:15.241Z,11.52
2022-10-02T01:54:15.348Z,11.56
2022-10-02T01:55:15.460Z,11.57
2022-10-02T01:56:15.568Z,11.61
2022-10-02T01:57:15.721Z,11.59
2022-10-02T01:58:15.783Z,11.57
2022-10-02T01:59:15.892Z,11.59
2022-10-02T02:00:16.004Z,11.61
2022-10-02T02:01:16.166Z,11.61
2022-10-02T02:02:16.310Z,11.61
2022-10-02T02:03:16.332Z,11.61
2022-10-02T02:04:16.443Z,11.61
2022-10-02T02:05:16.551Z,11.59
2022-10-02T02:06:16.657Z,11.61
2022-10-02T02:07:16.769Z,11.61
2022-10-02T02:08:16.877Z,11.62
2022-10-02T02:09:16.982Z,11.64
2022-10-02T02:10:17.088Z,11.64
2022-10-02T02:11:17.191Z,11.62
2022-10-02T02:12:17.299Z,11.64
2022-10-02T02:13:17.437Z,11.65
2022-10-02T02:14:17.522Z,11.67
2022-10-02T02:15:17.618Z,11.67
2022-10-02T02:16:17.826Z,11.67
2022-10-02T02:17:17.818Z,11.64
2022-10-02T02:18:17.919Z,11.67
2022-10-02T02:19:18.022Z,11.67
2022-10-02T02:20:18.122Z,11.68
2022-10-02T02:21:21.965Z,11.68
2022-10-02T02:22:18.322Z,11.68
2022-10-02T02:23:18.420Z,11.67
2022-10-02T02:24:18.518Z,11.67
2022-10-02T02:25:18.616Z,11.65
2022-10-02T02:26:18.714Z,11.62
2022-10-02T02:27:18.820Z,11.61
2022-10-02T02:28:19.051Z,11.59
2022-10-02T02:29:19.034Z,11.61
2022-10-02T02:30:19.140Z,11.62
2022-10-02T02:31:19.291Z,11.62
2022-10-02T02:32:19.350Z,11.62
2022-10-02T02:33:19.455Z,11.59
2022-10-02T02:34:19.562Z,11.56
2022-10-02T02:35:19.667Z,11.53
2022-10-02T02:36:19.773Z,11.52
2022-10-02T02:37:19.886Z,11.52
2022-10-02T02:38:19.986Z,11.50
2022-10-02T02:39:20.092Z,11.50
2022-10-02T02:40:20.202Z,11.50
2022-10-02T02:41:20.314Z,11.56
2022-10-02T02:42:25.134Z,11.57
2022-10-02T02:43:20.527Z,11.59
2022-10-02T02:44:20.657Z,11.57
2022-10-02T02:45:20.740Z,11.56
2022-10-02T02:46:20.850Z,11.53
2022-10-02T02:47:20.963Z,11.53
2022-10-02T02:48:21.068Z,11.53
2022-10-02T02:49:21.175Z,11.53
2022-10-02T02:50:21.286Z,11.53
2022-10-02T02:51:21.388Z,11.53
2022-10-02T02:52:21.503Z,11.54
2022-10-02T02:53:21.608Z,11.54
2022-10-02T02:54:21.712Z,11.56
2022-10-02T02:55:21.818Z,11.57
2022-10-02T02:56:21.924Z,11.61
2022-10-02T02:57:22.026Z,11.62
2022-10-02T02:58:22.131Z,11.64
2022-10-02T02:59:22.231Z,11.62
2022-10-02T03:00:22.360Z,11.65
2022-10-02T03:01:22.494Z,11.67
2022-10-02T03:02:22.620Z,11.62
2022-10-02T03:03:22.639Z,11.56
2022-10-02T03:04:22.741Z,11.59
2022-10-02T03:05:22.845Z,11.56
2022-10-02T03:06:22.947Z,11.54
2022-10-02T03:07:23.051Z,11.52
2022-10-02T03:08:23.157Z,11.56
2022-10-02T03:09:23.257Z,11.56
2022-10-02T03:10:23.360Z,11.57
2022-10-02T03:11:23.463Z,11.64
2022-10-02T03:12:23.566Z,11.62
2022-10-02T03:13:23.670Z,11.62
2022-10-02T03:14:23.773Z,11.61
2022-10-02T03:15:23.874Z,11.62
2022-10-02T03:16:23.998Z,11.59
2022-10-02T03:17:24.080Z,11.56
2022-10-02T03:18:24.182Z,11.56
2022-10-02T03:19:24.288Z,11.59
2022-10-02T03:20:24.388Z,11.59
2022-10-02T03:21:24.491Z,11.59
2022-10-02T03:22:24.594Z,11.59
2022-10-02T03:23:24.692Z,11.56
2022-10-02T03:24:24.789Z,11.53
2022-10-02T03:25:24.890Z,11.52
2022-10-02T03:26:24.994Z,11.47
2022-10-02T03:27:25.100Z,11.46
2022-10-02T03:28:50.666Z,11.44
2022-10-02T03:29:25.300Z,11.43
2022-10-02T03:30:25.406Z,11.44
2022-10-02T03:31:25.604Z,11.44
2022-10-02T03:32:25.643Z,11.46
2022-10-02T03:33:25.730Z,11.47
2022-10-02T03:34:25.838Z,11.47
2022-10-02T03:35:25.948Z,11.47
2022-10-02T03:36:26.056Z,11.46
2022-10-02T03:37:26.165Z,11.50
2022-10-02T03:38:26.277Z,11.54
2022-10-02T03:39:26.560Z,11.56
2022-10-02T03:40:26.489Z,11.57
2022-10-02T03:41:26.596Z,11.57
2022-10-02T03:42:26.714Z,11.61
2022-10-02T03:43:26.825Z,11.65
2022-10-02T03:44:26.941Z,11.67
2022-10-02T03:45:49.415Z,11.64
2022-10-02T03:46:28.210Z,11.67
2022-10-02T03:47:27.265Z,11.64
2022-10-02T03:48:27.397Z,11.65
2022-10-02T03:49:27.480Z,11.70
2022-10-02T03:50:27.588Z,11.70
2022-10-02T03:51:27.695Z,11.68
2022-10-02T03:52:27.800Z,11.68
2022-10-02T03:53:27.908Z,11.68
2022-10-02T03:54:28.003Z,11.72
2022-10-02T03:55:28.107Z,11.71
2022-10-02T03:56:28.212Z,11.75
2022-10-02T03:57:28.318Z,11.74
2022-10-02T03:58:28.422Z,11.74
2022-10-02T03:59:28.527Z,11.75
2022-10-02T04:00:28.629Z,11.75
2022-10-02T04:01:28.832Z,11.72
2022-10-02T04:02:28.837Z,11.74
2022-10-02T04:03:29.023Z,11.72
2022-10-02T04:04:29.076Z,11.71
2022-10-02T04:05:29.154Z,11.70
2022-10-02T04:06:29.257Z,11.70
2022-10-02T04:07:29.362Z,11.70
2022-10-02T04:08:29.464Z,11.70
2022-10-02T04:09:29.572Z,11.68
2022-10-02T04:10:29.692Z,11.68
2022-10-02T04:11:29.780Z,11.68
2022-10-02T04:12:29.893Z,11.65
2022-10-02T04:13:29.993Z,11.65
2022-10-02T04:14:30.097Z,11.65
2022-10-02T04:15:30.204Z,11.65
2022-10-02T04:16:30.447Z,11.64
2022-10-02T04:17:30.409Z,11.65
2022-10-02T04:18:30.515Z,11.64
2022-10-02T04:19:30.623Z,11.65
2022-10-02T04:20:30.751Z,11.64
2022-10-02T04:21:30.830Z,11.64
2022-10-02T04:22:30.934Z,11.64
2022-10-02T04:23:31.033Z,11.65
2022-10-02T04:24:31.140Z,11.67
2022-10-02T04:25:31.242Z,11.65
2022-10-02T04:26:31.344Z,11.65
2022-10-02T04:27:31.449Z,11.65
2022-10-02T04:28:31.588Z,11.67
2022-10-02T04:29:31.656Z,11.67
2022-10-02T04:30:31.760Z,11.67
2022-10-02T04:31:31.934Z,11.65
2022-10-02T04:32:31.970Z,11.67
2022-10-02T04:33:36.371Z,11.67
2022-10-02T04:34:33.186Z,11.70
2022-10-02T04:35:32.275Z,11.68
2022-10-02T04:36:32.404Z,11.71
2022-10-02T04:37:32.484Z,11.70
2022-10-02T04:38:32.594Z,11.71
2022-10-02T04:39:32.698Z,11.72
2022-10-02T04:40:32.801Z,11.71
2022-10-02T04:41:32.907Z,11.72
2022-10-02T04:42:33.013Z,11.70
2022-10-02T04:43:33.121Z,11.70
2022-10-02T04:44:33.230Z,11.68
2022-10-02T04:45:33.408Z,11.67
2022-10-02T04:46:33.944Z,11.64
2022-10-02T04:47:33.550Z,11.61
2022-10-02T04:48:33.660Z,11.59
2022-10-02T04:49:33.768Z,11.59
2022-10-02T04:50:33.874Z,11.57
2022-10-02T04:51:34.005Z,11.56
2022-10-02T04:52:34.086Z,11.57
2022-10-02T04:53:34.198Z,11.56
2022-10-02T04:54:34.309Z,11.53
2022-10-02T04:55:34.413Z,11.50
2022-10-02T04:56:34.842Z,11.47
2022-10-02T04:57:34.633Z,11.49
2022-10-02T04:58:34.747Z,11.50
2022-10-02T04:59:34.856Z,11.49
2022-10-02T05:00:34.997Z,11.50
2022-10-02T05:01:35.068Z,11.50
2022-10-02T05:02:35.173Z,11.53
2022-10-02T05:03:35.273Z,11.53
2022-10-02T05:04:35.370Z,11.56
2022-10-02T05:05:35.474Z,11.54
2022-10-02T05:06:35.815Z,11.56
2022-10-02T05:07:35.703Z,11.54
2022-10-02T05:08:35.779Z,11.57
2022-10-02T05:09:35.879Z,11.59
2022-10-02T05:10:35.988Z,11.59
2022-10-02T05:11:36.088Z,11.59
2022-10-02T05:12:36.199Z,11.62
2022-10-02T05:13:36.300Z,11.62
2022-10-02T05:14:36.410Z,11.62
2022-10-02T05:15:36.515Z,11.64
2022-10-02T05:16:37.019Z,11.67
2022-10-02T05:17:36.727Z,11.67
2022-10-02T05:18:36.831Z,11.67
2022-10-02T05:19:36.943Z,11.67
2022-10-02T05:20:37.051Z,11.71
2022-10-02T05:21:37.166Z,11.77
2022-10-02T05:22:37.283Z,11.77
2022-10-02T05:23:37.373Z,11.80
2022-10-02T05:24:37.481Z,11.77
2022-10-02T05:25:37.588Z,11.77
2022-10-02T05:26:38.001Z,11.80
2022-10-02T05:27:37.801Z,11.82
2022-10-02T05:28:37.909Z,11.83
2022-10-02T05:29:38.023Z,11.89
2022-10-02T05:30:38.126Z,11.92
2022-10-02T05:31:38.278Z,11.92
2022-10-02T05:32:38.344Z,11.96
2022-10-02T05:33:38.447Z,12.00
2022-10-02T05:34:38.554Z,12.03
2022-10-02T05:35:38.662Z,12.04
2022-10-02T05:36:39.081Z,12.05
2022-10-02T05:37:38.877Z,12.08
2022-10-02T05:38:39.002Z,12.11
2022-10-02T05:39:39.084Z,12.12
2022-10-02T05:40:39.188Z,12.12
2022-10-02T05:41:39.296Z,12.15
2022-10-02T05:42:42.995Z,12.15
2022-10-02T05:43:39.498Z,12.19
2022-10-02T05:44:39.604Z,12.19
2022-10-02T05:45:39.708Z,12.25
2022-10-02T05:46:40.456Z,12.25
2022-10-02T05:47:39.913Z,12.25
2022-10-02T05:48:40.018Z,12.29
2022-10-02T05:49:40.114Z,12.32
2022-10-02T05:50:40.218Z,12.33
2022-10-02T05:51:40.313Z,12.33
2022-10-02T05:52:40.411Z,12.37
2022-10-02T05:53:40.512Z,12.43
2022-10-02T05:54:40.637Z,12.40
2022-10-02T05:55:40.718Z,12.44
2022-10-02T05:56:40.818Z,12.45
2022-10-02T05:57:40.912Z,12.50
2022-10-02T05:58:41.011Z,12.51
2022-10-02T05:59:41.112Z,12.55
2022-10-02T06:00:41.247Z,12.53
2022-10-02T06:01:41.422Z,12.55
2022-10-02T06:02:41.488Z,12.56
2022-10-02T06:03:41.503Z,12.59
2022-10-02T06:04:41.599Z,12.63
2022-10-02T06:05:41.694Z,12.64
2022-10-02T06:06:41.790Z,12.64
2022-10-02T06:07:41.884Z,12.64
2022-10-02T06:08:41.982Z,12.63
2022-10-02T06:09:42.232Z,12.61
2022-10-02T06:10:42.173Z,12.63
2022-10-02T06:11:42.264Z,12.63
2022-10-02T06:12:42.354Z,12.61
2022-10-02T06:13:42.448Z,12.61
2022-10-02T06:14:42.539Z,12.59
2022-10-02T06:15:42.629Z,12.58
2022-10-02T06:16:42.819Z,12.56
2022-10-02T06:17:42.815Z,12.55
2022-10-02T06:18:42.909Z,12.55
2022-10-02T06:19:43.004Z,12.53
2022-10-02T06:20:43.101Z,12.55
2022-10-02T06:21:43.192Z,12.53
2022-10-02T06:22:43.288Z,12.51
2022-10-02T06:23:43.383Z,12.51
2022-10-02T06:24:43.482Z,12.58
2022-10-02T06:25:43.604Z,12.58
2022-10-02T06:26:43.684Z,12.61
2022-10-02T06:27:43.785Z,12.61
2022-10-02T06:28:43.887Z,12.67
2022-10-02T06:29:43.985Z,12.70
2022-10-02T06:30:44.084Z,12.74
2022-10-02T06:31:44.233Z,12.75
2022-10-02T06:32:44.275Z,12.77
2022-10-02T06:33:44.373Z,12.79
2022-10-02T06:34:47.786Z,12.82
2022-10-02T06:35:44.561Z,12.85
2022-10-02T06:36:44.651Z,12.82
2022-10-02T06:37:44.739Z,12.79
2022-10-02T06:38:44.825Z,12.84
2022-10-02T06:39:44.907Z,12.87
2022-10-02T06:40:44.990Z,12.82
2022-10-02T06:41:45.102Z,12.82
2022-10-02T06:42:45.160Z,12.82
2022-10-02T06:43:45.251Z,12.81
2022-10-02T06:44:45.338Z,12.84
2022-10-02T06:45:45.456Z,12.84
2022-10-02T06:46:49.398Z,12.85
2022-10-02T06:47:45.594Z,12.87
2022-10-02T06:48:45.671Z,12.88
2022-10-02T06:49:45.748Z,12.89
2022-10-02T06:50:45.821Z,12.89
2022-10-02T06:51:45.904Z,12.92
2022-10-02T06:52:45.985Z,12.96
2022-10-02T06:53:46.061Z,12.96
2022-10-02T06:54:46.142Z,12.92
2022-10-02T06:55:46.226Z,12.89
2022-10-02T06:56:46.300Z,12.87
2022-10-02T06:57:46.403Z,12.87
2022-10-02T06:58:46.454Z,12.88
2022-10-02T06:59:46.533Z,12.89
2022-10-02T07:00:46.644Z,12.93
2022-10-02T07:01:46.786Z,12.92
2022-10-02T07:02:46.769Z,12.92
2022-10-02T07:03:46.852Z,12.92
2022-10-02T07:04:46.929Z,12.95
2022-10-02T07:05:47.015Z,12.93
2022-10-02T07:06:47.094Z,12.89
2022-10-02T07:07:47.172Z,12.96
2022-10-02T07:08:47.246Z,13.00
2022-10-02T07:09:47.324Z,12.97
2022-10-02T07:10:47.349Z,12.99
2022-10-02T07:11:47.435Z,13.03
2022-10-02T07:12:47.503Z,13.03
2022-10-02T07:13:47.613Z,13.06
2022-10-02T07:14:47.666Z,-40.00
2022-10-02T07:15:47.746Z,-40.00
2022-10-02T07:16:47.840Z,-40.00
2022-10-02T07:17:47.898Z,-40.00
2022-10-02T07:18:47.976Z,13.07
2022-10-02T07:19:48.055Z,13.09
2022-10-02T07:20:48.128Z,13.12
2022-10-02T07:21:48.206Z,13.04
2022-10-02T07:22:48.280Z,13.07
2022-10-02T07:23:48.363Z,13.04
2022-10-02T07:24:48.440Z,13.04
2022-10-02T07:25:48.526Z,13.11
2022-10-02T07:26:48.611Z,-40.00
2022-10-02T07:27:48.717Z,13.17
2022-10-02T07:28:48.764Z,13.17
2022-10-02T07:29:48.866Z,-40.00
2022-10-02T07:30:48.919Z,-40.00
2022-10-02T07:31:49.152Z,-40.00
2022-10-02T07:32:49.064Z,-40.00
2022-10-02T07:33:49.136Z,-40.00
2022-10-02T07:34:49.208Z,-40.00
2022-10-02T07:35:49.278Z,-40.00
2022-10-02T07:36:49.344Z,-40.00
2022-10-02T07:37:49.408Z,-40.00
2022-10-02T07:38:49.473Z,-40.00
2022-10-02T07:39:49.533Z,-40.00
2022-10-02T07:40:49.593Z,-40.00
2022-10-02T07:41:49.656Z,-40.00
2022-10-02T07:42:49.719Z,-40.00
2022-10-02T07:43:49.784Z,-40.00
2022-10-02T07:44:49.853Z,-40.00
2022-10-02T07:45:49.979Z,-40.00
2022-10-02T07:46:49.980Z,-40.00
2022-10-02T07:47:50.046Z,-40.00
2022-10-02T07:48:50.112Z,-40.00
2022-10-02T07:49:50.179Z,-40.00
2022-10-02T07:50:50.242Z,-40.00
2022-10-02T07:51:50.357Z,-40.00
2022-10-02T07:52:50.369Z,-40.00
2022-10-02T07:53:50.425Z,-40.00
2022-10-02T07:54:50.481Z,-40.00
2022-10-02T07:55:50.536Z,-40.00
2022-10-02T07:56:50.590Z,-40.00
2022-10-02T07:57:50.641Z,-40.00
2022-10-02T07:58:50.694Z,-40.00
2022-10-02T07:59:50.745Z,-40.00
2022-10-02T08:00:50.801Z,-40.00
2022-10-02T08:01:50.948Z,-40.00
2022-10-02T08:02:50.954Z,-40.00
2022-10-02T08:03:50.937Z,-40.00
2022-10-02T08:04:50.985Z,-40.00
2022-10-02T08:05:51.034Z,-40.00
2022-10-02T08:06:51.087Z,-40.00
2022-10-02T08:07:51.139Z,-40.00
2022-10-02T08:08:51.163Z,-40.00
2022-10-02T08:09:51.278Z,-40.00
2022-10-02T08:10:51.260Z,-40.00
2022-10-02T08:11:51.305Z,-40.00
2022-10-02T08:12:51.354Z,-40.00
2022-10-02T08:13:51.399Z,-40.00
2022-10-02T08:14:51.445Z,-40.00
2022-10-02T08:15:51.485Z,-40.00
2022-10-02T08:16:51.614Z,-40.00
2022-10-02T08:17:51.599Z,-40.00
2022-10-02T08:18:51.621Z,-40.00
2022-10-02T08:19:51.676Z,-40.00
2022-10-02T08:20:51.720Z,-40.00
2022-10-02T08:21:51.774Z,-40.00
2022-10-02T08:22:51.819Z,-40.00
2022-10-02T08:23:51.862Z,-40.00
2022-10-02T08:24:51.909Z,-40.00
2022-10-02T08:25:51.962Z,-40.00
2022-10-02T08:26:52.004Z,-40.00
2022-10-02T08:27:52.079Z,-40.00
2022-10-02T08:28:52.100Z,-40.00
2022-10-02T08:29:52.149Z,-40.00
2022-10-02T08:30:52.195Z,-40.00
2022-10-02T08:31:52.323Z,-40.00
2022-10-02T08:32:52.293Z,-40.00
2022-10-02T08:33:52.361Z,-40.00
2022-10-02T08:34:52.381Z,-40.00
2022-10-02T08:35:52.422Z,-40.00
2022-10-02T08:36:52.464Z,-40.00
2022-10-02T08:37:52.505Z,-40.00
2022-10-02T08:38:54.806Z,-40.00
2022-10-02T08:39:52.593Z,-40.00
2022-10-02T08:40:52.640Z,-40.00
2022-10-02T08:41:52.685Z,-40.00
2022-10-02T08:42:52.723Z,-40.00
2022-10-02T08:43:52.762Z,-40.00
2022-10-02T08:44:52.805Z,-40.00
2022-10-02T08:45:52.910Z,-40.00
2022-10-02T08:46:52.870Z,-40.00
2022-10-02T08:47:52.904Z,-40.00
2022-10-02T08:48:52.934Z,-40.00
2022-10-02T08:49:52.986Z,-40.00
2022-10-02T08:50:52.990Z,-40.00
2022-10-02T08:51:53.013Z,-40.00
2022-10-02T08:52:53.033Z,-40.00
2022-10-02T08:53:53.057Z,-40.00
2022-10-02T08:54:53.077Z,-40.00
2022-10-02T08:55:53.100Z,-40.00
2022-10-02T08:56:53.116Z,-40.00
2022-10-02T08:57:53.136Z,-40.00
2022-10-02T08:58:53.183Z,-40.00
2022-10-02T08:59:53.178Z,-40.00
2022-10-02T09:00:53.267Z,-40.00
2022-10-02T09:01:56.377Z,-40.00
2022-10-02T09:02:54.269Z,-40.00
2022-10-02T09:03:53.270Z,-40.00
2022-10-02T09:04:53.299Z,-40.00
2022-10-02T09:05:53.477Z,-40.00
2022-10-02T09:06:53.350Z,-40.00
2022-10-02T09:07:53.373Z,-40.00
2022-10-02T09:08:53.400Z,-40.00
2022-10-02T09:09:53.419Z,-40.00
2022-10-02T09:10:53.436Z,-40.00
2022-10-02T09:11:53.453Z,-40.00
2022-10-02T09:12:53.473Z,-40.00
2022-10-02T09:13:53.490Z,-40.00
2022-10-02T09:14:56.904Z,-40.00
2022-10-02T09:15:53.530Z,-40.00
2022-10-02T09:16:53.624Z,-40.00
2022-10-02T09:17:53.571Z,-40.00
2022-10-02T09:18:53.587Z,-40.00
2022-10-02T09:19:53.604Z,-40.00
2022-10-02T09:20:53.623Z,-40.00
2022-10-02T09:21:55.610Z,-40.00
2022-10-02T09:22:53.653Z,-40.00
2022-10-02T09:23:53.667Z,-40.00
2022-10-02T09:24:53.675Z,-40.00
2022-10-02T09:25:53.683Z,-40.00
2022-10-02T09:26:53.692Z,-40.00
2022-10-02T09:27:53.725Z,-40.00
2022-10-02T09:28:53.713Z,-40.00
2022-10-02T09:29:53.721Z,-40.00
2022-10-02T09:30:53.729Z,-40.00
2022-10-02T09:31:53.773Z,-40.00
2022-10-02T09:32:53.745Z,-40.00
2022-10-02T09:33:53.754Z,-40.00
2022-10-02T09:34:53.764Z,-40.00
2022-10-02T09:35:53.776Z,-40.00
2022-10-02T09:36:53.788Z,-40.00
2022-10-02T09:37:53.829Z,-40.00
2022-10-02T09:38:53.824Z,-40.00
2022-10-02T09:39:53.832Z,-40.00
2022-10-02T09:40:53.851Z,-40.00
2022-10-02T09:41:53.866Z,-40.00
2022-10-02T09:42:53.874Z,-40.00
2022-10-02T09:43:53.887Z,-40.00
2022-10-02T09:44:54.599Z,-40.00
2022-10-02T09:45:54.028Z,-40.00
2022-10-02T09:46:53.918Z,-40.00
2022-10-02T09:47:53.925Z,-40.00
2022-10-02T09:48:53.940Z,-40.00
2022-10-02T09:49:53.945Z,-40.00
2022-10-02T09:50:53.943Z,-40.00
2022-10-02T09:51:53.946Z,-40.00
2022-10-02T09:52:53.952Z,-40.00
2022-10-02T09:53:53.966Z,-40.00
2022-10-02T09:54:53.940Z,-40.00
2022-10-02T09:55:53.936Z,-40.00
2022-10-02T09:56:53.919Z,-40.00
2022-10-02T09:57:53.906Z,-40.00
2022-10-02T09:58:53.895Z,-40.00
2022-10-02T09:59:53.884Z,-40.00
2022-10-02T10:00:53.900Z,-40.00
2022-10-02T10:01:53.917Z,-40.00
2022-10-02T10:02:53.842Z,-40.00
2022-10-02T10:03:53.827Z,-40.00
2022-10-02T10:05:05.652Z,-40.00
2022-10-02T10:05:54.818Z,-40.00
2022-10-02T10:06:53.790Z,-40.00
2022-10-02T10:07:53.773Z,-40.00
2022-10-02T10:08:53.764Z,-40.00
2022-10-02T10:09:53.770Z,-40.00
2022-10-02T10:10:53.730Z,-40.00
2022-10-02T10:11:53.712Z,-40.00
2022-10-02T10:12:53.705Z,-40.00
2022-10-02T10:13:53.697Z,-40.00
2022-10-02T10:14:53.692Z,-40.00
2022-10-02T10:15:53.677Z,-40.00
2022-10-02T10:16:53.672Z,-40.00
2022-10-02T10:17:53.656Z,-40.00
2022-10-02T10:18:53.640Z,-40.00
2022-10-02T10:19:53.622Z,-40.00
2022-10-02T10:20:53.602Z,-40.00
2022-10-02T10:21:53.580Z,-40.00
2022-10-02T10:22:53.551Z,-40.00
2022-10-02T10:23:53.536Z,-40.00
2022-10-02T10:24:53.505Z,-40.00
2022-10-02T10:25:53.499Z,-40.00
2022-10-02T10:26:53.443Z,-40.00
2022-10-02T10:27:53.432Z,-40.00
2022-10-02T10:28:53.357Z,-40.00
2022-10-02T10:29:53.304Z,-40.00
2022-10-02T10:30:53.251Z,-40.00
2022-10-02T10:31:53.236Z,-40.00
2022-10-02T10:32:53.124Z,-40.00
2022-10-02T10:33:53.056Z,-40.00
2022-10-02T10:34:52.989Z,-40.00
2022-10-02T10:35:52.917Z,-40.00
2022-10-02T10:36:52.842Z,-40.00
2022-10-02T10:37:52.766Z,-40.00
2022-10-02T10:38:52.685Z,-40.00
2022-10-02T10:39:52.608Z,-40.00
2022-10-02T10:40:52.532Z,-40.00
2022-10-02T10:41:52.472Z,-40.00
2022-10-02T10:43:06.958Z,-40.00
2022-10-02T10:43:52.302Z,-40.00
2022-10-02T10:44:52.227Z,-40.00
2022-10-02T10:45:52.231Z,-40.00
2022-10-02T10:46:52.094Z,-40.00
2022-10-02T10:47:52.027Z,-40.00
2022-10-02T10:48:51.971Z,-40.00
2022-10-02T10:49:51.909Z,-40.00
2022-10-02T10:50:51.846Z,-40.00
2022-10-02T10:51:51.783Z,-40.00
2022-10-02T10:52:51.718Z,-40.00
2022-10-02T10:53:51.650Z,-40.00
2022-10-02T10:54:51.579Z,-40.00
2022-10-02T10:55:51.507Z,-40.00
2022-10-02T10:56:51.437Z,-40.00
2022-10-02T10:57:51.393Z,-40.00
2022-10-02T10:58:51.302Z,-40.00
2022-10-02T10:59:51.235Z,-40.00
2022-10-02T11:00:51.248Z,-40.00
2022-10-02T11:01:51.104Z,-40.00
2022-10-02T11:02:51.018Z,-40.00
2022-10-02T11:03:50.953Z,-40.00
2022-10-02T11:04:50.887Z,-40.00
2022-10-02T11:05:50.818Z,-40.00
2022-10-02T11:06:50.752Z,-40.00
2022-10-02T11:07:50.692Z,-40.00
2022-10-02T11:08:50.634Z,-40.00
2022-10-02T11:09:50.581Z,-40.00
2022-10-02T11:10:52.531Z,-40.00
2022-10-02T11:11:50.487Z,-40.00
2022-10-02T11:12:50.446Z,-40.00
2022-10-02T11:13:50.436Z,-40.00
2022-10-02T11:14:50.378Z,-40.00
2022-10-02T11:15:50.347Z,-40.00
2022-10-02T11:16:50.389Z,-40.00
2022-10-02T11:17:50.288Z,-40.00
2022-10-02T11:18:50.248Z,-40.00
2022-10-02T11:19:50.205Z,-40.00
2022-10-02T11:20:50.158Z,-40.00
2022-10-02T11:21:50.104Z,-40.00
2022-10-02T11:22:50.051Z,-40.00
2022-10-02T11:23:50.013Z,-40.00
2022-10-02T11:24:49.951Z,-40.00
2022-10-02T11:25:49.893Z,-40.00
2022-10-02T11:26:49.841Z,-40.00
2022-10-02T11:27:49.836Z,-40.00
2022-10-02T11:28:49.725Z,-40.00
2022-10-02T11:29:49.696Z,-40.00
2022-10-02T11:30:49.616Z,-40.00
2022-10-02T11:31:49.680Z,-40.00
2022-10-02T11:32:49.506Z,-40.00
2022-10-02T11:33:49.451Z,-40.00
2022-10-02T11:34:49.394Z,-40.00
2022-10-02T11:35:49.342Z,-40.00
2022-10-02T11:36:49.285Z,-40.00
2022-10-02T11:37:49.223Z,-40.00
2022-10-02T11:38:49.155Z,-40.00
2022-10-02T11:39:49.086Z,-40.00
2022-10-02T11:40:49.018Z,-40.00
2022-10-02T11:41:48.955Z,-40.00
2022-10-02T11:42:48.887Z,-40.00
2022-10-02T11:43:48.821Z,-40.00
2022-10-02T11:44:48.750Z,-40.00
2022-10-02T11:45:48.765Z,-40.00
2022-10-02T11:46:48.593Z,-40.00
2022-10-02T11:47:48.510Z,-40.00
2022-10-02T11:48:48.433Z,-40.00
2022-10-02T11:49:48.352Z,-40.00
2022-10-02T11:50:50.276Z,-40.00
2022-10-02T11:51:48.195Z,-40.00
2022-10-02T11:52:48.619Z,-40.00
2022-10-02T11:53:48.048Z,-40.00
2022-10-02T11:54:47.987Z,-40.00
2022-10-02T11:55:47.926Z,-40.00
2022-10-02T11:56:47.876Z,-40.00
2022-10-02T11:57:47.835Z,-40.00
2022-10-02T11:58:47.801Z,-40.00
2022-10-02T11:59:47.770Z,-40.00
2022-10-02T12:00:47.742Z,-40.00
2022-10-02T12:01:47.745Z,-40.00
2022-10-02T12:02:47.816Z,-40.00
2022-10-02T12:03:47.694Z,-40.00
2022-10-02T12:04:47.687Z,-40.00
2022-10-02T12:05:47.680Z,-40.00
2022-10-02T12:06:47.672Z,-40.00
2022-10-02T12:07:47.666Z,-40.00
2022-10-02T12:08:47.666Z,-40.00
2022-10-02T12:09:47.662Z,-40.00
2022-10-02T12:10:47.659Z,-40.00
2022-10-02T12:11:47.638Z,-40.00
2022-10-02T12:12:47.611Z,-40.00
2022-10-02T12:13:47.576Z,-40.00
2022-10-02T12:14:47.535Z,-40.00
2022-10-02T12:15:47.495Z,-40.00
2022-10-02T12:16:47.482Z,-40.00
2022-10-02T12:17:47.434Z,-40.00
2022-10-02T12:18:47.365Z,-40.00
2022-10-02T12:19:47.311Z,-40.00
2022-10-02T12:20:47.256Z,-40.00
2022-10-02T12:21:47.179Z,-40.00
2022-10-02T12:22:47.102Z,-40.00
2022-10-02T12:23:47.022Z,-40.00
2022-10-02T12:24:49.448Z,-40.00
2022-10-02T12:25:46.854Z,-40.00
2022-10-02T12:26:46.780Z,-40.00
2022-10-02T12:27:46.751Z,-40.00
2022-10-02T12:28:46.656Z,-40.00
2022-10-02T12:29:46.584Z,-40.00
2022-10-02T12:30:46.524Z,-40.00
2022-10-02T12:31:46.530Z,-40.00
2022-10-02T12:32:46.422Z,-40.00
2022-10-02T12:33:46.401Z,-40.00
2022-10-02T12:34:46.334Z,-40.00
2022-10-02T12:35:46.296Z,-40.00
2022-10-02T12:36:46.257Z,-40.00
2022-10-02T12:37:46.223Z,-40.00
2022-10-02T12:38:46.189Z,-40.00
2022-10-02T12:39:46.161Z,-40.00
2022-10-02T12:40:46.137Z,-40.00
2022-10-02T12:41:46.111Z,-40.00
2022-10-02T12:42:46.083Z,-40.00